Turpan, China
Current Conditions -  °F | °C
As of 9:30 AM on Wednesday 22 Oct 2014 (Local Time) from ZWWW Reporting Station
Smoke Smoke  
Wind Chill: 46°   Ceiling: Unl
Heat Index: 48°   Visibility: 2.5mi
Dew Point: 41°   Wind: 4mph
Humidity: 76%   Direction: 290°WNW
Pressure: 30.3"   Gusts: NA
Location:  42.93°N, 89.2°E
Report Text: ZWWW 220130Z 29002MPS 4000 FU NSC 09/05 Q1026 NOSIG
Loading
Personal Weather Stations






























Interactive Weather Map
Tropical Storm Tracking
New forecast layout! Learn more

10-Day Weather Forecast

Advertisements
Track Severe Weather on mobile